createdAt,value
2023-02-17T00:00:23.274Z,81.68
2023-02-17T00:02:59.958Z,81.99
2023-02-17T00:05:33.076Z,81.82
2023-02-17T00:08:05.805Z,81.29
2023-02-17T00:10:39.348Z,80.52
2023-02-17T00:13:12.133Z,80.00
2023-02-17T00:15:46.630Z,79.36
2023-02-17T00:18:20.025Z,78.83
2023-02-17T00:20:53.013Z,78.74
2023-02-17T00:23:26.158Z,79.01
2023-02-17T00:26:01.225Z,79.61
2023-02-17T00:28:34.983Z,80.62
2023-02-17T00:31:12.644Z,81.44
2023-02-17T00:33:45.710Z,81.40
2023-02-17T00:36:19.378Z,81.11
2023-02-17T00:38:53.353Z,80.79
2023-02-17T00:41:27.344Z,80.57
2023-02-17T00:44:02.571Z,80.58
2023-02-17T00:46:36.635Z,80.39
2023-02-17T00:49:09.355Z,80.89
2023-02-17T00:51:42.471Z,82.02
2023-02-17T00:54:16.469Z,82.02
2023-02-17T00:56:49.660Z,81.78
2023-02-17T00:59:22.286Z,81.52
2023-02-17T01:01:55.279Z,81.47
2023-02-17T01:04:31.494Z,81.36
2023-02-17T01:07:05.232Z,81.70
2023-02-17T01:09:38.013Z,81.63
2023-02-17T01:12:11.345Z,82.38
2023-02-17T01:14:44.872Z,84.02
2023-02-17T01:17:17.688Z,84.25
2023-02-17T01:19:50.890Z,84.66
2023-02-17T01:22:23.800Z,84.18
2023-02-17T01:24:56.583Z,83.70
2023-02-17T01:27:29.670Z,83.66
2023-02-17T01:30:02.432Z,83.07
2023-02-17T01:32:35.831Z,83.26
2023-02-17T01:35:09.502Z,84.49
2023-02-17T01:37:42.392Z,84.54
2023-02-17T01:40:17.389Z,84.93
2023-02-17T01:42:51.668Z,84.78
2023-02-17T01:45:37.107Z,84.65
2023-02-17T01:48:13.094Z,85.21
2023-02-17T01:50:50.185Z,84.92
2023-02-17T01:53:26.500Z,86.44
2023-02-17T01:55:59.815Z,86.95
2023-02-17T01:58:36.879Z,88.28
2023-02-17T02:01:10.505Z,89.67
2023-02-17T02:03:43.488Z,90.67
2023-02-17T02:06:19.523Z,93.60
2023-02-17T02:08:55.752Z,96.58
2023-02-17T02:11:28.622Z,97.72
2023-02-17T02:14:01.288Z,98.15
2023-02-17T02:16:36.724Z,98.80
2023-02-17T02:19:18.488Z,98.77
2023-02-17T02:22:22.567Z,99.14
2023-02-17T02:25:01.248Z,99.91
2023-02-17T02:27:55.084Z,100.00
2023-02-17T02:30:53.802Z,100.00
2023-02-17T02:33:40.750Z,100.00
2023-02-17T02:36:16.823Z,100.00
2023-02-17T02:38:51.669Z,100.00
2023-02-17T02:41:26.433Z,100.00
2023-02-17T02:43:59.368Z,100.00
2023-02-17T02:46:32.088Z,100.00
2023-02-17T02:49:04.863Z,100.00
2023-02-17T02:51:44.474Z,100.00
2023-02-17T02:54:37.571Z,100.00
2023-02-17T02:57:35.126Z,100.00
2023-02-17T03:00:15.045Z,100.00
2023-02-17T03:02:52.645Z,100.00
2023-02-17T03:05:30.085Z,100.00
2023-02-17T03:08:05.352Z,100.00
2023-02-17T03:10:38.370Z,100.00
2023-02-17T03:13:12.641Z,100.00
2023-02-17T03:15:45.820Z,100.00
2023-02-17T03:18:19.574Z,100.00
2023-02-17T03:20:54.976Z,100.00
2023-02-17T03:23:27.748Z,100.00
2023-02-17T03:26:01.005Z,100.00
2023-02-17T03:28:34.525Z,100.00
2023-02-17T03:31:07.529Z,100.00
2023-02-17T03:33:41.165Z,100.00
2023-02-17T03:36:14.513Z,100.00
2023-02-17T03:38:53.779Z,100.00
2023-02-17T03:41:27.027Z,100.00
2023-02-17T03:43:59.898Z,100.00
2023-02-17T03:46:33.405Z,100.00
2023-02-17T03:49:06.607Z,100.00
2023-02-17T03:51:39.808Z,100.00
2023-02-17T03:54:14.149Z,100.00
2023-02-17T03:56:47.253Z,100.00
2023-02-17T03:59:20.665Z,100.00
2023-02-17T04:01:56.983Z,100.00
2023-02-17T04:04:29.730Z,100.00
2023-02-17T04:07:03.454Z,100.00
2023-02-17T04:09:36.110Z,100.00
2023-02-17T04:12:09.829Z,100.00
2023-02-17T04:14:43.802Z,100.00
2023-02-17T04:17:16.443Z,100.00
2023-02-17T04:19:49.491Z,100.00
2023-02-17T04:22:22.282Z,100.00
2023-02-17T04:24:55.495Z,100.00
2023-02-17T04:27:29.666Z,100.00
2023-02-17T04:30:02.471Z,100.00
2023-02-17T04:32:36.982Z,100.00
2023-02-17T04:35:11.072Z,100.00
2023-02-17T04:37:43.954Z,100.00
2023-02-17T04:40:17.464Z,100.00
2023-02-17T04:42:51.221Z,100.00
2023-02-17T04:45:24.752Z,99.53
2023-02-17T04:47:57.507Z,98.96
2023-02-17T04:50:30.169Z,99.40
2023-02-17T04:53:03.292Z,99.15
2023-02-17T04:55:36.373Z,98.82
2023-02-17T04:58:09.262Z,97.71
2023-02-17T05:00:49.962Z,97.27
2023-02-17T05:03:24.707Z,96.47
2023-02-17T05:05:57.598Z,96.55
2023-02-17T05:08:30.930Z,96.90
2023-02-17T05:11:04.980Z,96.79
2023-02-17T05:13:38.082Z,96.68
2023-02-17T05:16:16.921Z,95.93
2023-02-17T05:18:49.659Z,94.74
2023-02-17T05:21:22.923Z,94.26
2023-02-17T05:23:55.819Z,94.22
2023-02-17T05:26:28.772Z,94.56
2023-02-17T05:29:01.774Z,94.46
2023-02-17T05:31:35.067Z,94.31
2023-02-17T05:34:08.084Z,94.02
2023-02-17T05:36:41.606Z,94.16
2023-02-17T05:39:14.654Z,94.36
2023-02-17T05:41:47.306Z,94.61
2023-02-17T05:44:19.993Z,94.97
2023-02-17T05:46:53.154Z,94.83
2023-02-17T05:49:26.513Z,94.78
2023-02-17T05:51:59.370Z,94.87
2023-02-17T05:54:32.233Z,95.01
2023-02-17T05:57:05.766Z,94.88
2023-02-17T05:59:38.757Z,95.19
2023-02-17T06:02:11.671Z,95.80
2023-02-17T06:04:45.539Z,95.77
2023-02-17T06:07:18.432Z,95.87
2023-02-17T06:09:53.674Z,96.28
2023-02-17T06:12:26.994Z,95.95
2023-02-17T06:15:00.639Z,95.59
2023-02-17T06:17:39.214Z,95.55
2023-02-17T06:20:15.805Z,95.88
2023-02-17T06:22:48.860Z,95.05
2023-02-17T06:25:22.232Z,94.63
2023-02-17T06:27:54.871Z,94.16
2023-02-17T06:30:28.756Z,93.36
2023-02-17T06:33:03.650Z,92.38
2023-02-17T06:35:36.375Z,91.89
2023-02-17T06:38:09.072Z,90.95
2023-02-17T06:40:41.661Z,90.54
2023-02-17T06:43:14.959Z,89.77
2023-02-17T06:45:48.212Z,88.40
2023-02-17T06:48:21.484Z,88.35
2023-02-17T06:50:56.343Z,87.80
2023-02-17T06:53:29.660Z,87.55
2023-02-17T06:56:03.118Z,87.58
2023-02-17T06:58:36.883Z,87.51
2023-02-17T07:01:19.303Z,87.09
2023-02-17T07:03:52.281Z,87.32
2023-02-17T07:06:27.953Z,87.45
2023-02-17T07:09:00.846Z,87.78
2023-02-17T07:11:34.118Z,88.03
2023-02-17T07:14:07.486Z,87.95
2023-02-17T07:16:40.910Z,88.00
2023-02-17T07:19:15.998Z,88.61
2023-02-17T07:21:48.882Z,89.03
2023-02-17T07:24:21.868Z,88.76
2023-02-17T07:26:56.370Z,88.47
2023-02-17T07:29:29.448Z,88.21
2023-02-17T07:32:02.273Z,88.56
2023-02-17T07:34:35.914Z,88.68
2023-02-17T07:37:09.300Z,88.39
2023-02-17T07:39:43.795Z,88.33
2023-02-17T07:42:19.755Z,88.46
2023-02-17T07:44:53.299Z,88.35
2023-02-17T07:47:29.132Z,88.47
2023-02-17T07:50:02.583Z,88.23
2023-02-17T07:52:35.664Z,88.60
2023-02-17T07:55:09.929Z,88.40
2023-02-17T07:57:43.034Z,88.29
2023-02-17T08:00:20.366Z,88.24
2023-02-17T08:02:53.343Z,87.82
2023-02-17T08:05:26.288Z,87.81
2023-02-17T08:08:13.569Z,86.98
2023-02-17T08:11:05.571Z,86.69
2023-02-17T08:13:40.044Z,86.87
2023-02-17T08:16:12.883Z,86.14
2023-02-17T08:18:47.403Z,85.89
2023-02-17T08:21:20.040Z,85.58
2023-02-17T08:23:53.107Z,85.82
2023-02-17T08:26:26.205Z,86.29
2023-02-17T08:29:01.780Z,86.23
2023-02-17T08:31:35.211Z,85.10
2023-02-17T08:34:09.612Z,84.92
2023-02-17T08:36:43.315Z,84.48
2023-02-17T08:39:18.001Z,84.41
2023-02-17T08:41:50.872Z,84.55
2023-02-17T08:44:24.907Z,84.68
2023-02-17T08:46:57.887Z,84.49
2023-02-17T08:49:32.967Z,83.89
2023-02-17T08:52:06.131Z,83.87
2023-02-17T08:54:39.625Z,84.33
2023-02-17T08:57:12.925Z,84.68
2023-02-17T08:59:48.413Z,84.46
2023-02-17T09:02:21.259Z,84.04
2023-02-17T09:04:54.327Z,83.68
2023-02-17T09:07:29.346Z,84.23
2023-02-17T09:10:04.052Z,84.54
2023-02-17T09:12:43.242Z,85.19
2023-02-17T09:15:16.602Z,84.81
2023-02-17T09:17:50.122Z,85.42
2023-02-17T09:20:25.361Z,85.40
2023-02-17T09:22:58.708Z,85.67
2023-02-17T09:25:31.368Z,85.83
2023-02-17T09:28:04.065Z,85.88
2023-02-17T09:30:39.837Z,85.71
2023-02-17T09:33:13.076Z,85.89
2023-02-17T09:35:46.026Z,86.14
2023-02-17T09:38:19.424Z,85.80
2023-02-17T09:40:54.831Z,85.61
2023-02-17T09:43:30.466Z,84.78
2023-02-17T09:46:07.807Z,84.85
2023-02-17T09:48:41.586Z,84.90
2023-02-17T09:51:17.751Z,85.17
2023-02-17T09:53:53.713Z,85.30
2023-02-17T09:56:33.610Z,84.63
2023-02-17T09:59:10.447Z,84.48
2023-02-17T10:01:43.623Z,84.67
2023-02-17T10:04:21.074Z,85.39
2023-02-17T10:06:55.116Z,85.76
2023-02-17T10:09:30.457Z,85.95
2023-02-17T10:12:05.591Z,85.34
2023-02-17T10:14:42.001Z,84.53
2023-02-17T10:17:17.907Z,83.92
2023-02-17T10:19:57.952Z,83.91
2023-02-17T10:22:30.811Z,84.36
2023-02-17T10:25:08.711Z,84.92
2023-02-17T10:27:43.029Z,85.15
2023-02-17T10:30:29.213Z,84.22
2023-02-17T10:33:04.827Z,83.68
2023-02-17T10:35:45.695Z,83.56
2023-02-17T10:38:20.673Z,83.34
2023-02-17T10:40:53.599Z,83.28
2023-02-17T10:43:30.891Z,84.05
2023-02-17T10:46:07.051Z,84.39
2023-02-17T10:48:42.319Z,84.32
2023-02-17T10:51:18.284Z,84.02
2023-02-17T10:53:53.165Z,83.93
2023-02-17T10:56:27.489Z,84.01
2023-02-17T10:59:03.191Z,84.56
2023-02-17T11:01:39.382Z,85.77
2023-02-17T11:04:13.946Z,85.67
2023-02-17T11:06:55.178Z,85.14
2023-02-17T11:09:33.190Z,83.52
2023-02-17T11:12:12.559Z,82.73
2023-02-17T11:14:54.714Z,83.11
2023-02-17T11:17:30.209Z,83.53
2023-02-17T11:20:05.102Z,84.37
2023-02-17T11:22:41.169Z,83.90
2023-02-17T11:25:25.761Z,82.75
2023-02-17T11:27:59.980Z,81.81
2023-02-17T11:30:33.651Z,80.98
2023-02-17T11:33:16.256Z,79.77
2023-02-17T11:35:52.208Z,79.39
2023-02-17T11:38:26.036Z,78.81
2023-02-17T11:41:00.730Z,78.36
2023-02-17T11:43:34.853Z,78.49
2023-02-17T11:46:19.690Z,79.06
2023-02-17T11:49:22.953Z,79.67
2023-02-17T11:52:01.199Z,79.77
2023-02-17T11:54:47.608Z,79.52
2023-02-17T11:57:27.019Z,78.80
2023-02-17T12:00:07.462Z,78.11
2023-02-17T12:03:12.965Z,77.58
2023-02-17T12:05:53.208Z,77.39
2023-02-17T12:08:29.638Z,77.05
2023-02-17T12:11:10.846Z,77.47
2023-02-17T12:13:48.901Z,78.03
2023-02-17T12:16:34.508Z,78.67
2023-02-17T12:19:14.786Z,78.90
2023-02-17T12:21:56.382Z,78.80
2023-02-17T12:24:40.992Z,78.31
2023-02-17T12:27:20.641Z,77.84
2023-02-17T12:30:06.179Z,77.64
2023-02-17T12:32:48.297Z,77.40
2023-02-17T12:35:23.722Z,77.31
2023-02-17T12:38:00.893Z,76.99
2023-02-17T12:40:38.041Z,77.05
2023-02-17T12:43:15.750Z,77.60
2023-02-17T12:45:49.753Z,78.52
2023-02-17T12:48:27.452Z,78.79
2023-02-17T12:51:04.791Z,78.55
2023-02-17T12:53:47.130Z,78.24
2023-02-17T12:56:55.229Z,77.63
2023-02-17T12:59:33.697Z,77.45
2023-02-17T13:02:07.505Z,77.15
2023-02-17T13:04:40.177Z,76.89
2023-02-17T13:07:46.192Z,77.21
2023-02-17T13:10:32.804Z,78.31
2023-02-17T13:13:08.067Z,79.29
2023-02-17T13:15:43.121Z,79.36
2023-02-17T13:18:28.094Z,79.03
2023-02-17T13:21:02.685Z,78.82
2023-02-17T13:23:43.826Z,78.42
2023-02-17T13:26:29.236Z,77.79
2023-02-17T13:29:23.385Z,77.39
2023-02-17T13:32:00.465Z,77.27
2023-02-17T13:34:36.445Z,77.54
2023-02-17T13:37:21.165Z,78.31
2023-02-17T13:39:54.021Z,79.07
2023-02-17T13:42:39.031Z,79.55
2023-02-17T13:45:18.021Z,79.45
2023-02-17T13:47:50.751Z,79.18
2023-02-17T13:50:35.845Z,78.84
2023-02-17T13:53:25.251Z,78.58
2023-02-17T13:55:59.761Z,78.68
2023-02-17T13:58:33.453Z,78.50
2023-02-17T14:01:08.526Z,78.72
2023-02-17T14:03:47.211Z,79.50
2023-02-17T14:06:26.314Z,80.62
2023-02-17T14:08:59.451Z,81.34
2023-02-17T14:11:36.001Z,81.37
2023-02-17T14:14:12.128Z,81.09
2023-02-17T14:16:46.784Z,80.68
2023-02-17T14:19:21.348Z,80.43
2023-02-17T14:22:02.750Z,80.19
2023-02-17T14:24:36.631Z,80.86
2023-02-17T14:27:14.389Z,81.08
2023-02-17T14:29:48.629Z,81.78
2023-02-17T14:32:32.300Z,83.15
2023-02-17T14:35:21.309Z,84.05
2023-02-17T14:37:54.478Z,84.68
2023-02-17T14:40:28.088Z,86.72
2023-02-17T14:43:02.118Z,86.68
2023-02-17T14:45:35.418Z,89.40
2023-02-17T14:48:09.812Z,90.07
2023-02-17T14:50:44.406Z,91.72
2023-02-17T14:53:23.657Z,93.98
2023-02-17T14:55:57.657Z,96.26
2023-02-17T14:58:30.413Z,99.11
2023-02-17T15:01:03.228Z,98.67
2023-02-17T15:03:37.684Z,99.30
2023-02-17T15:06:15.070Z,99.80
2023-02-17T15:08:49.468Z,100.00
2023-02-17T15:11:26.143Z,100.00
2023-02-17T15:13:59.565Z,100.00
2023-02-17T15:16:37.804Z,100.00
2023-02-17T15:19:11.976Z,100.00
2023-02-17T15:21:47.298Z,100.00
2023-02-17T15:24:40.095Z,100.00
2023-02-17T15:27:15.798Z,100.00
2023-02-17T15:29:48.852Z,100.00
2023-02-17T15:32:24.244Z,100.00
2023-02-17T15:35:03.553Z,100.00
2023-02-17T15:37:38.385Z,100.00
2023-02-17T15:40:16.609Z,100.00
2023-02-17T15:42:51.394Z,100.00
2023-02-17T15:45:25.044Z,100.00
2023-02-17T15:48:09.457Z,100.00
2023-02-17T15:50:43.962Z,100.00
2023-02-17T15:53:17.040Z,100.00
2023-02-17T15:55:49.916Z,100.00
2023-02-17T15:58:24.848Z,100.00
2023-02-17T16:01:00.631Z,100.00
2023-02-17T16:03:34.148Z,100.00
2023-02-17T16:06:08.757Z,100.00
2023-02-17T16:08:42.691Z,100.00
2023-02-17T16:11:20.752Z,100.00
2023-02-17T16:13:53.962Z,100.00
2023-02-17T16:16:28.822Z,100.00
2023-02-17T16:19:02.087Z,100.00
2023-02-17T16:21:35.645Z,100.00
2023-02-17T16:24:09.152Z,100.00
2023-02-17T16:26:44.305Z,100.00
2023-02-17T16:29:18.712Z,100.00
2023-02-17T16:31:52.469Z,100.00
2023-02-17T16:34:26.204Z,100.00
2023-02-17T16:37:00.703Z,100.00
2023-02-17T16:39:35.988Z,100.00
2023-02-17T16:42:11.054Z,100.00
2023-02-17T16:44:44.495Z,100.00
2023-02-17T16:47:22.750Z,100.00
2023-02-17T16:49:55.504Z,100.00
2023-02-17T16:52:30.478Z,100.00
2023-02-17T16:55:04.238Z,100.00
2023-02-17T16:57:37.464Z,100.00
2023-02-17T17:00:14.927Z,100.00
2023-02-17T17:02:48.248Z,100.00
2023-02-17T17:05:22.355Z,100.00
2023-02-17T17:07:56.455Z,100.00
2023-02-17T17:10:30.934Z,100.00
2023-02-17T17:13:04.126Z,100.00
2023-02-17T17:15:39.402Z,100.00
2023-02-17T17:18:19.314Z,100.00
2023-02-17T17:20:56.086Z,100.00
2023-02-17T17:23:29.151Z,100.00
2023-02-17T17:26:01.856Z,100.00
2023-02-17T17:28:38.080Z,100.00
2023-02-17T17:31:13.400Z,100.00
2023-02-17T17:33:47.389Z,100.00
2023-02-17T17:36:23.693Z,100.00
2023-02-17T17:38:56.510Z,100.00
2023-02-17T17:41:30.333Z,100.00
2023-02-17T17:44:03.743Z,100.00
2023-02-17T17:46:37.929Z,100.00
2023-02-17T17:49:11.466Z,100.00
2023-02-17T17:51:46.328Z,100.00
2023-02-17T17:54:19.420Z,100.00
2023-02-17T17:56:53.202Z,100.00
2023-02-17T17:59:27.529Z,100.00
2023-02-17T18:02:01.779Z,100.00
2023-02-17T18:04:35.431Z,100.00
2023-02-17T18:07:08.409Z,100.00
2023-02-17T18:09:42.294Z,100.00
2023-02-17T18:12:19.216Z,100.00
2023-02-17T18:14:54.841Z,100.00
2023-02-17T18:17:27.675Z,100.00
2023-02-17T18:20:00.410Z,100.00
2023-02-17T18:22:33.841Z,100.00
2023-02-17T18:25:09.338Z,100.00
2023-02-17T18:27:44.118Z,100.00
2023-02-17T18:30:23.880Z,100.00
2023-02-17T18:33:03.436Z,100.00
2023-02-17T18:35:38.927Z,100.00
2023-02-17T18:38:12.486Z,100.00
2023-02-17T18:40:46.074Z,100.00
2023-02-17T18:43:19.946Z,100.00
2023-02-17T18:45:57.221Z,100.00
2023-02-17T18:48:30.561Z,100.00
2023-02-17T18:51:08.905Z,100.00
2023-02-17T18:53:43.529Z,100.00
2023-02-17T18:56:17.032Z,100.00
2023-02-17T18:58:50.764Z,100.00
2023-02-17T19:01:24.824Z,100.00
2023-02-17T19:03:58.364Z,100.00
2023-02-17T19:06:34.648Z,100.00
2023-02-17T19:09:08.062Z,100.00
2023-02-17T19:11:41.602Z,100.00
2023-02-17T19:14:14.621Z,100.00
2023-02-17T19:16:49.069Z,100.00
2023-02-17T19:19:22.195Z,100.00
2023-02-17T19:21:55.487Z,100.00
2023-02-17T19:24:28.366Z,100.00
2023-02-17T19:27:01.789Z,100.00
2023-02-17T19:29:34.793Z,100.00
2023-02-17T19:32:08.164Z,100.00
2023-02-17T19:34:42.920Z,100.00
2023-02-17T19:37:16.039Z,100.00
2023-02-17T19:39:49.210Z,100.00
2023-02-17T19:42:22.042Z,100.00
2023-02-17T19:44:56.528Z,100.00
2023-02-17T19:47:31.122Z,100.00
2023-02-17T19:50:07.016Z,100.00
2023-02-17T19:52:41.191Z,100.00
2023-02-17T19:55:14.620Z,100.00
2023-02-17T19:57:48.048Z,100.00
2023-02-17T20:00:21.376Z,100.00
2023-02-17T20:02:54.304Z,100.00
2023-02-17T20:05:28.082Z,100.00
2023-02-17T20:08:01.220Z,100.00
2023-02-17T20:10:34.740Z,100.00
2023-02-17T20:13:07.708Z,100.00
2023-02-17T20:15:40.624Z,100.00
2023-02-17T20:18:14.127Z,100.00
2023-02-17T20:20:54.596Z,100.00
2023-02-17T20:23:29.158Z,100.00
2023-02-17T20:26:05.664Z,100.00
2023-02-17T20:28:38.761Z,100.00
2023-02-17T20:31:16.272Z,100.00
2023-02-17T20:33:49.771Z,100.00
2023-02-17T20:36:23.247Z,100.00
2023-02-17T20:38:57.478Z,100.00
2023-02-17T20:41:30.360Z,100.00
2023-02-17T20:44:05.196Z,100.00
2023-02-17T20:46:38.777Z,100.00
2023-02-17T20:49:11.675Z,100.00
2023-02-17T20:51:44.728Z,100.00
2023-02-17T20:54:18.169Z,100.00
2023-02-17T20:56:52.060Z,100.00
2023-02-17T20:59:24.854Z,100.00
2023-02-17T21:02:00.950Z,100.00
2023-02-17T21:04:39.164Z,100.00
2023-02-17T21:07:14.079Z,100.00
2023-02-17T21:09:51.291Z,100.00
2023-02-17T21:12:24.274Z,100.00
2023-02-17T21:14:57.186Z,100.00
2023-02-17T21:17:30.293Z,100.00
2023-02-17T21:20:04.224Z,100.00
2023-02-17T21:22:37.418Z,100.00
2023-02-17T21:25:11.109Z,100.00
2023-02-17T21:27:44.093Z,100.00
2023-02-17T21:30:17.911Z,100.00
2023-02-17T21:32:50.661Z,100.00
2023-02-17T21:35:23.668Z,100.00
2023-02-17T21:37:59.520Z,100.00
2023-02-17T21:40:32.442Z,100.00
2023-02-17T21:43:22.465Z,100.00
2023-02-17T21:45:56.040Z,100.00
2023-02-17T21:48:28.808Z,100.00
2023-02-17T21:51:08.879Z,100.00
2023-02-17T21:53:41.614Z,100.00
2023-02-17T21:56:15.293Z,100.00
2023-02-17T21:58:49.934Z,100.00
2023-02-17T22:01:23.045Z,100.00
2023-02-17T22:03:55.659Z,100.00
2023-02-17T22:06:30.426Z,100.00
2023-02-17T22:09:03.606Z,100.00
2023-02-17T22:11:37.755Z,100.00
2023-02-17T22:14:13.242Z,100.00
2023-02-17T22:16:46.216Z,100.00
2023-02-17T22:19:20.517Z,100.00
2023-02-17T22:21:53.646Z,100.00
2023-02-17T22:24:27.746Z,100.00
2023-02-17T22:27:00.824Z,100.00
2023-02-17T22:29:33.976Z,100.00
2023-02-17T22:32:07.204Z,100.00
2023-02-17T22:34:41.151Z,100.00
2023-02-17T22:37:14.456Z,100.00
2023-02-17T22:39:49.949Z,100.00
2023-02-17T22:42:23.156Z,100.00
2023-02-17T22:44:55.900Z,100.00
2023-02-17T22:47:28.919Z,100.00
2023-02-17T22:50:01.904Z,100.00
2023-02-17T22:52:34.988Z,100.00
2023-02-17T22:55:09.232Z,100.00
2023-02-17T22:57:43.363Z,100.00
2023-02-17T23:00:18.754Z,100.00
2023-02-17T23:02:54.022Z,100.00
2023-02-17T23:05:27.845Z,100.00
2023-02-17T23:08:01.716Z,100.00
2023-02-17T23:10:34.974Z,100.00
2023-02-17T23:13:12.918Z,100.00
2023-02-17T23:15:47.374Z,100.00
2023-02-17T23:18:20.509Z,100.00
2023-02-17T23:20:54.218Z,100.00
2023-02-17T23:23:28.186Z,100.00
2023-02-17T23:26:03.813Z,100.00
2023-02-17T23:28:38.062Z,100.00
2023-02-17T23:31:13.776Z,100.00
2023-02-17T23:33:48.139Z,100.00
2023-02-17T23:36:21.446Z,100.00
2023-02-17T23:38:55.937Z,100.00
2023-02-17T23:41:28.843Z,100.00
2023-02-17T23:44:02.447Z,100.00
2023-02-17T23:46:35.440Z,100.00
2023-02-17T23:49:08.237Z,100.00
2023-02-17T23:51:41.495Z,100.00
2023-02-17T23:54:16.840Z,100.00
2023-02-17T23:56:50.223Z,100.00
2023-02-17T23:59:23.734Z,100.00
